createdAt,value
2023-03-06T00:02:09.518Z,13.00
2023-03-06T00:07:11.049Z,7.40
2023-03-06T00:12:12.544Z,10.40
2023-03-06T00:17:14.047Z,10.20
2023-03-06T00:22:16.561Z,10.90
2023-03-06T00:27:18.455Z,12.60
2023-03-06T00:32:19.979Z,13.20
2023-03-06T00:37:23.434Z,9.40
2023-03-06T00:42:25.326Z,12.10
2023-03-06T00:47:27.267Z,10.10
2023-03-06T00:52:29.224Z,11.40
2023-03-06T00:57:30.769Z,13.00
2023-03-06T01:02:32.640Z,12.40
2023-03-06T01:07:37.018Z,12.70
2023-03-06T01:12:38.947Z,13.70
2023-03-06T01:17:40.473Z,12.00
2023-03-06T01:22:42.927Z,11.90
2023-03-06T01:27:44.458Z,12.70
2023-03-06T01:32:46.456Z,10.60
2023-03-06T01:37:47.946Z,9.40
2023-03-06T01:42:50.537Z,13.60
2023-03-06T01:47:51.998Z,13.10
2023-03-06T01:52:58.062Z,13.10
2023-03-06T01:58:03.849Z,13.60
2023-03-06T02:03:10.405Z,11.80
2023-03-06T02:08:15.004Z,11.80
2023-03-06T02:13:16.649Z,12.50
2023-03-06T02:18:18.421Z,12.80
2023-03-06T02:23:32.263Z,13.10
2023-03-06T02:28:34.670Z,13.30
2023-03-06T02:33:36.184Z,11.70
2023-03-06T02:38:44.590Z,13.40
2023-03-06T02:43:48.802Z,11.10
2023-03-06T02:48:50.349Z,12.00
2023-03-06T02:53:51.868Z,10.80
2023-03-06T02:58:53.339Z,11.20
2023-03-06T03:03:54.845Z,11.30
2023-03-06T03:08:56.322Z,9.80
2023-03-06T03:13:57.807Z,11.10
2023-03-06T03:18:59.315Z,11.20
2023-03-06T03:24:00.807Z,11.00
2023-03-06T03:29:04.197Z,14.00
2023-03-06T03:34:06.163Z,10.60
2023-03-06T03:39:07.686Z,11.00
2023-03-06T03:44:09.711Z,12.60
2023-03-06T03:49:11.312Z,9.30
2023-03-06T03:54:12.911Z,16.80
2023-03-06T03:59:14.963Z,16.90
2023-03-06T04:04:16.553Z,12.40
2023-03-06T04:09:18.049Z,8.60
2023-03-06T04:14:19.501Z,8.40
2023-03-06T04:19:20.979Z,9.70
2023-03-06T04:24:22.436Z,9.00
2023-03-06T04:29:23.888Z,9.20
2023-03-06T04:34:25.547Z,10.80
2023-03-06T04:39:27.135Z,7.00
2023-03-06T04:44:28.643Z,10.40
2023-03-06T04:49:30.143Z,10.80
2023-03-06T04:54:32.127Z,12.60
2023-03-06T04:59:33.670Z,11.50
2023-03-06T05:04:35.196Z,8.60
2023-03-06T05:09:39.127Z,9.70
2023-03-06T05:14:40.789Z,6.40
2023-03-06T05:19:42.243Z,9.60
2023-03-06T05:24:43.705Z,8.20
2023-03-06T05:29:45.379Z,13.10
2023-03-06T05:34:47.559Z,11.20
2023-03-06T05:39:50.066Z,10.70
2023-03-06T05:44:51.610Z,11.80
2023-03-06T05:49:53.105Z,11.30
2023-03-06T05:54:55.442Z,13.70
2023-03-06T05:59:56.961Z,11.60
2023-03-06T06:04:58.517Z,14.00
2023-03-06T06:10:03.137Z,13.80
2023-03-06T06:15:06.643Z,13.60
2023-03-06T06:20:09.477Z,13.10
2023-03-06T06:25:10.956Z,12.10
2023-03-06T06:30:13.443Z,12.50
2023-03-06T06:35:15.117Z,10.50
2023-03-06T06:40:17.107Z,12.60
2023-03-06T06:45:19.016Z,13.40
2023-03-06T06:50:20.603Z,12.00
2023-03-06T06:55:22.110Z,11.90
2023-03-06T07:00:24.439Z,12.50
2023-03-06T07:05:25.961Z,13.30
2023-03-06T07:10:27.645Z,13.60
2023-03-06T07:15:30.884Z,11.90
2023-03-06T07:20:32.650Z,13.40
2023-03-06T07:25:34.323Z,13.50
2023-03-06T07:30:35.893Z,13.20
2023-03-06T07:35:37.435Z,13.40
2023-03-06T07:40:39.064Z,14.30
2023-03-06T07:45:40.531Z,11.70
2023-03-06T07:50:42.170Z,11.60
2023-03-06T07:55:43.695Z,12.90
2023-03-06T08:00:45.709Z,11.20
2023-03-06T08:05:47.203Z,11.70
2023-03-06T08:10:49.213Z,10.70
2023-03-06T08:15:50.785Z,10.30
2023-03-06T08:21:05.936Z,11.10
2023-03-06T08:26:16.387Z,8.30
2023-03-06T08:31:27.217Z,9.70
2023-03-06T08:36:29.436Z,10.10
2023-03-06T08:41:31.781Z,8.90
2023-03-06T08:46:34.999Z,8.40
2023-03-06T08:51:36.533Z,7.60
2023-03-06T08:56:38.497Z,8.60
2023-03-06T09:01:40.874Z,10.00
2023-03-06T09:06:45.303Z,9.90
2023-03-06T09:11:46.824Z,8.40
2023-03-06T09:16:48.571Z,10.20
2023-03-06T09:21:50.266Z,9.60
2023-03-06T09:26:51.886Z,9.10
2023-03-06T09:31:53.639Z,9.10
2023-03-06T09:36:57.264Z,8.40
2023-03-06T09:41:59.326Z,9.60
2023-03-06T09:47:18.967Z,10.90
2023-03-06T09:52:30.275Z,8.80
2023-03-06T09:57:36.210Z,8.00
2023-03-06T10:02:44.524Z,9.10
2023-03-06T10:07:53.022Z,11.60
2023-03-06T10:13:10.020Z,10.30
2023-03-06T10:18:13.349Z,9.30
2023-03-06T10:23:56.474Z,9.30
2023-03-06T10:29:28.773Z,9.00
2023-03-06T10:34:35.677Z,9.10
2023-03-06T10:39:37.459Z,11.90
2023-03-06T10:44:38.962Z,8.50
2023-03-06T10:49:41.213Z,9.00
2023-03-06T10:54:44.417Z,8.30
2023-03-06T10:59:56.532Z,8.20
2023-03-06T11:05:00.945Z,6.00
2023-03-06T11:10:19.412Z,6.20
2023-03-06T11:15:23.759Z,6.80
2023-03-06T11:20:48.544Z,4.00
2023-03-06T11:26:11.091Z,7.30
2023-03-06T11:31:20.960Z,5.70
2023-03-06T11:36:33.845Z,8.10
2023-03-06T11:41:57.732Z,4.70
2023-03-06T11:47:31.459Z,6.70
2023-03-06T11:52:53.224Z,7.70
2023-03-06T11:58:16.510Z,7.00
2023-03-06T12:03:36.280Z,5.10
2023-03-06T12:09:04.934Z,9.10
2023-03-06T12:14:13.009Z,14.50
2023-03-06T12:19:33.245Z,7.70
2023-03-06T12:25:03.176Z,13.30
2023-03-06T12:30:26.364Z,6.60
2023-03-06T12:36:00.345Z,7.40
2023-03-06T12:41:16.913Z,6.90
2023-03-06T12:46:24.941Z,8.40
2023-03-06T12:51:27.314Z,8.80
2023-03-06T12:56:31.739Z,7.90
2023-03-06T13:01:55.654Z,9.30
2023-03-06T13:07:28.977Z,6.90
2023-03-06T13:13:25.092Z,6.40
2023-03-06T13:18:26.575Z,6.40
2023-03-06T13:23:37.390Z,10.30
2023-03-06T13:28:46.964Z,9.00
2023-03-06T13:33:55.356Z,7.80
2023-03-06T13:39:02.566Z,10.70
2023-03-06T13:44:26.113Z,11.40
2023-03-06T13:49:29.473Z,8.90
2023-03-06T13:54:33.870Z,8.50
2023-03-06T14:00:08.744Z,13.30
2023-03-06T14:05:14.548Z,11.10
2023-03-06T14:10:24.919Z,14.10
2023-03-06T14:15:36.185Z,9.80
2023-03-06T14:20:49.369Z,12.40
2023-03-06T14:25:59.002Z,11.40
2023-03-06T14:31:03.461Z,13.40
2023-03-06T14:36:09.978Z,10.70
2023-03-06T14:41:14.061Z,13.80
2023-03-06T14:46:21.470Z,12.20
2023-03-06T14:51:25.536Z,13.70
2023-03-06T14:56:28.287Z,15.60
2023-03-06T15:01:36.392Z,15.70
2023-03-06T15:06:45.285Z,16.30
2023-03-06T15:12:08.043Z,15.50
2023-03-06T15:17:18.342Z,15.30
2023-03-06T15:22:33.571Z,18.30
2023-03-06T15:27:35.479Z,18.70
2023-03-06T15:32:42.524Z,16.40
2023-03-06T15:37:44.841Z,19.50
2023-03-06T15:42:46.854Z,12.60
2023-03-06T15:47:49.863Z,13.60
2023-03-06T15:52:53.065Z,12.60
2023-03-06T15:57:59.686Z,11.60
2023-03-06T16:03:02.028Z,13.10
2023-03-06T16:08:04.682Z,11.40
2023-03-06T16:13:11.140Z,11.50
2023-03-06T16:18:13.520Z,11.90
2023-03-06T16:23:16.374Z,11.30
2023-03-06T16:28:17.908Z,9.70
2023-03-06T16:33:20.745Z,9.70
2023-03-06T16:38:22.273Z,10.50
2023-03-06T16:43:23.839Z,10.00
2023-03-06T16:48:25.317Z,9.10
2023-03-06T16:53:26.913Z,8.90
2023-03-06T16:58:28.481Z,10.40
2023-03-06T17:03:30.022Z,10.70
2023-03-06T17:08:31.610Z,11.50
2023-03-06T17:13:33.094Z,12.90
2023-03-06T17:18:35.236Z,15.30
2023-03-06T17:23:37.915Z,14.10
2023-03-06T17:28:39.975Z,11.10
2023-03-06T17:33:42.418Z,13.70
2023-03-06T17:38:44.303Z,15.50
2023-03-06T17:43:46.188Z,15.70
2023-03-06T17:48:47.865Z,12.50
2023-03-06T17:53:49.748Z,16.80
2023-03-06T17:58:51.408Z,15.00
2023-03-06T18:03:53.623Z,19.00
2023-03-06T18:08:55.094Z,15.20
2023-03-06T18:13:56.837Z,18.00
2023-03-06T18:18:58.595Z,19.90
2023-03-06T18:24:00.126Z,16.90
2023-03-06T18:29:04.512Z,16.20
2023-03-06T18:34:12.670Z,16.90
2023-03-06T18:39:15.799Z,18.00
2023-03-06T18:44:17.657Z,18.00
2023-03-06T18:49:19.226Z,17.80
2023-03-06T18:54:20.994Z,17.00
2023-03-06T18:59:22.845Z,11.00
2023-03-06T19:04:26.130Z,8.00
2023-03-06T19:09:27.630Z,7.60
2023-03-06T19:14:29.637Z,10.60
2023-03-06T19:19:31.151Z,10.50
2023-03-06T19:24:32.692Z,12.70
2023-03-06T19:29:34.246Z,13.30
2023-03-06T19:34:35.766Z,12.80
2023-03-06T19:39:37.323Z,12.50
2023-03-06T19:44:38.788Z,13.10
2023-03-06T19:49:40.433Z,14.90
2023-03-06T19:54:41.923Z,15.90
2023-03-06T19:59:43.829Z,16.70
2023-03-06T20:04:47.229Z,15.50
2023-03-06T20:09:48.913Z,19.20
2023-03-06T20:14:53.244Z,19.10
2023-03-06T20:19:58.180Z,16.90
2023-03-06T20:24:59.662Z,21.80
2023-03-06T20:30:01.507Z,17.20
2023-03-06T20:35:03.590Z,16.90
2023-03-06T20:40:06.082Z,17.90
2023-03-06T20:45:08.166Z,15.90
2023-03-06T20:50:10.224Z,22.30
2023-03-06T20:55:12.100Z,20.60
2023-03-06T21:00:14.018Z,21.80
2023-03-06T21:05:15.874Z,20.40
2023-03-06T21:10:17.552Z,18.70
2023-03-06T21:15:19.635Z,14.70
2023-03-06T21:20:21.298Z,14.40
2023-03-06T21:25:23.391Z,11.20
2023-03-06T21:30:24.865Z,11.60
2023-03-06T21:35:26.828Z,12.60
2023-03-06T21:40:28.415Z,12.80
2023-03-06T21:45:31.818Z,9.70
2023-03-06T21:50:33.402Z,8.10
2023-03-06T21:55:39.895Z,9.50
2023-03-06T22:00:41.436Z,6.70
2023-03-06T22:05:43.347Z,7.40
2023-03-06T22:10:47.524Z,6.50
2023-03-06T22:15:51.737Z,6.00
2023-03-06T22:20:53.299Z,7.70
2023-03-06T22:25:54.808Z,6.00
2023-03-06T22:31:02.135Z,6.70
2023-03-06T22:36:07.654Z,5.80
2023-03-06T22:41:10.712Z,7.80
2023-03-06T22:46:14.965Z,7.00
2023-03-06T22:51:19.424Z,8.10
2023-03-06T22:56:22.219Z,6.30
2023-03-06T23:01:26.769Z,8.00
2023-03-06T23:06:34.043Z,7.60
2023-03-06T23:11:35.578Z,8.60
2023-03-06T23:16:38.907Z,7.50
2023-03-06T23:21:40.987Z,8.40
2023-03-06T23:26:42.589Z,7.70
2023-03-06T23:31:44.053Z,9.10
2023-03-06T23:36:45.569Z,8.60
2023-03-06T23:41:47.581Z,9.50
2023-03-06T23:46:49.075Z,9.20
2023-03-06T23:51:50.690Z,10.20
2023-03-06T23:56:52.182Z,9.20
